Terminal Aerodrome Forecast
Issued by NWS Cleveland, OH

Home | Current Version | Previous Version | Graphics & Text | Print | Product List | Glossary On
Versions: 1 2 3 4 5 6 7 8 9 10 11 12 13 14 15 16 17 18 19 20 21 22 23 24 25 26 27 28
000
FTUS41 KCLE 040534
TAFCLE
TAF
KCLE 040534Z 0406/0512 27005KT P6SM FEW050
     FM040900 23005KT P6SM SCT050
     FM041600 27012KT P6SM SCT050
     FM050300 26007KT P6SM BKN250=

USA.gov is the U.S. government's official web portal to all federal, state and local government web resources and services.